Terminal Aerodrome Forecast
Issued by NWS Melbourne, FL

Home | Current Version | Previous Version | Text Only | Print | Product List | Glossary On
Versions: 1 2 3 4 5 6 7 8 9 10 11 12 13 14 15 16 17 18 19 20
000
FTUS42 KMLB 050536
TAFDAB
TAF
KDAB 050536Z 0506/0606 00000KT 5SM HZ SCT120 BKN250
     FM051300 23004KT P6SM SCT025 SCT080
     FM051700 11007KT P6SM VCTS SCT030CB BKN080
      TEMPO 0517/0520 3SM TSRA BKN020CB OVC040
     FM052100 12005KT P6SM SCT030 BKN100
     FM060000 18003KT P6SM SCT050 OVC120=

USA.gov is the U.S. government's official web portal to all federal, state and local government web resources and services.